< < Back
Terminal Aerodrome Forecast


Current Version              Previous Versions:   1  2  3  4  5  6  7  8  9  

Terminal Aerodrome Forecast

978
FTUS42 KGSP 052323
TAFAVL
TAF
KAVL 052323Z 0600/0624 34007KT P6SM FEW250
     FM060400 34003KT P6SM SCT250
     FM061500 35007KT P6SM BKN200=

Latest METAR

431
SAUS70 KWBC 061800 RRA
MTRAVL
METAR KAVL 061754Z 35005KT 10SM CLR 05/M11 A3030 RMK AO2 SLP271
T00501111 10050 21050 58025


USA.gov is the U.S. government's official web portal to all federal, state and local government web resources and services.